createdAt,value
2023-02-21T00:02:19.523Z,8.26
2023-02-21T00:06:22.351Z,8.29
2023-02-21T00:10:25.266Z,8.28
2023-02-21T00:14:27.665Z,8.27
2023-02-21T00:18:29.792Z,8.28
2023-02-21T00:22:32.188Z,8.32
2023-02-21T00:26:23.328Z,8.30
2023-02-21T00:30:28.440Z,8.33
2023-02-21T00:34:31.719Z,8.35
2023-02-21T00:38:40.417Z,8.33
2023-02-21T00:42:48.553Z,8.36
2023-02-21T00:46:43.146Z,8.33
2023-02-21T00:50:44.762Z,8.33
2023-02-21T00:55:05.247Z,8.33
2023-02-21T00:59:14.255Z,8.32
2023-02-21T01:03:16.681Z,8.31
2023-02-21T01:07:18.568Z,8.33
2023-02-21T01:11:20.593Z,8.33
2023-02-21T01:15:15.522Z,8.31
2023-02-21T01:19:19.626Z,8.33
2023-02-21T01:23:20.690Z,8.33
2023-02-21T01:27:14.789Z,8.34
2023-02-21T01:31:17.050Z,8.30
2023-02-21T01:35:18.639Z,8.30
2023-02-21T01:39:21.012Z,8.28
2023-02-21T01:43:16.187Z,8.24
2023-02-21T01:47:18.081Z,8.24
2023-02-21T01:55:43.446Z,8.22
2023-02-21T01:59:45.580Z,8.24
2023-02-21T02:04:00.138Z,8.25
2023-02-21T02:07:54.600Z,8.23
2023-02-21T02:11:55.491Z,8.20
2023-02-21T02:16:20.454Z,8.19
2023-02-21T02:20:35.886Z,8.16
2023-02-21T02:24:42.411Z,8.17
2023-02-21T02:29:00.001Z,8.16
2023-02-21T02:33:06.677Z,8.17
2023-02-21T02:37:19.051Z,8.18
2023-02-21T02:41:31.469Z,8.16
2023-02-21T02:45:38.510Z,8.15
2023-02-21T02:49:42.123Z,8.17
2023-02-21T02:53:51.880Z,8.19
2023-02-21T02:57:58.477Z,8.19
2023-02-21T03:02:23.575Z,8.21
2023-02-21T03:06:16.857Z,8.22
2023-02-21T03:10:16.339Z,8.23
2023-02-21T03:14:23.415Z,8.28
2023-02-21T03:18:28.239Z,8.30
2023-02-21T03:22:31.178Z,8.29
2023-02-21T03:26:35.146Z,8.32
2023-02-21T03:30:38.111Z,8.35
2023-02-21T03:34:34.867Z,8.36
2023-02-21T03:38:25.931Z,8.40
2023-02-21T03:42:29.502Z,8.37
2023-02-21T03:46:24.832Z,8.42
2023-02-21T03:50:00.366Z,8.43
2023-02-21T03:54:04.228Z,8.44
2023-02-21T03:58:06.756Z,8.42
2023-02-21T04:01:51.933Z,8.44
2023-02-21T04:05:55.561Z,8.47
2023-02-21T04:09:45.402Z,8.45
2023-02-21T04:13:26.794Z,8.45
2023-02-21T04:17:30.414Z,8.48
2023-02-21T04:21:41.509Z,8.52
2023-02-21T04:25:30.764Z,8.54
2023-02-21T04:29:17.324Z,8.53
2023-02-21T04:32:51.413Z,8.55
2023-02-21T04:36:48.118Z,8.55
2023-02-21T04:40:44.723Z,8.49
2023-02-21T04:44:59.498Z,8.45
2023-02-21T04:48:55.009Z,8.43
2023-02-21T04:52:43.957Z,8.43
2023-02-21T04:56:47.833Z,8.45
2023-02-21T05:00:50.372Z,8.53
2023-02-21T05:04:46.582Z,8.59
2023-02-21T05:08:49.029Z,8.62
2023-02-21T05:12:39.598Z,8.65
2023-02-21T05:16:43.396Z,8.64
2023-02-21T05:20:40.280Z,8.53
2023-02-21T05:24:43.978Z,8.54
2023-02-21T05:28:41.365Z,8.56
2023-02-21T05:32:35.185Z,8.59
2023-02-21T05:36:31.628Z,8.59
2023-02-21T05:40:27.050Z,8.61
2023-02-21T05:44:16.586Z,8.60
2023-02-21T05:48:13.894Z,8.56
2023-02-21T05:52:16.412Z,8.53
2023-02-21T05:56:21.170Z,8.53
2023-02-21T06:00:24.253Z,8.44
2023-02-21T06:04:32.034Z,8.33
2023-02-21T06:08:35.622Z,8.26
2023-02-21T06:12:31.151Z,8.20
2023-02-21T06:16:34.572Z,8.19
2023-02-21T06:20:48.021Z,8.10
2023-02-21T06:24:38.500Z,8.03
2023-02-21T06:28:32.770Z,8.01
2023-02-21T06:32:25.708Z,7.97
2023-02-21T06:36:28.124Z,7.91
2023-02-21T06:40:31.682Z,7.92
2023-02-21T06:44:25.764Z,7.88
2023-02-21T06:48:35.095Z,7.82
2023-02-21T06:52:38.724Z,7.82
2023-02-21T06:56:43.337Z,7.87
2023-02-21T07:00:47.559Z,7.91
2023-02-21T07:05:00.268Z,7.94
2023-02-21T07:13:22.489Z,7.97
2023-02-21T07:17:07.923Z,7.98
2023-02-21T07:21:22.942Z,8.05
2023-02-21T07:25:20.374Z,8.07
2023-02-21T07:29:09.688Z,8.14
2023-02-21T07:33:06.080Z,8.14
2023-02-21T07:36:59.974Z,8.16
2023-02-21T07:40:56.695Z,8.17
2023-02-21T07:44:52.951Z,8.17
2023-02-21T07:48:56.537Z,8.13
2023-02-21T07:53:00.560Z,8.06
2023-02-21T07:57:04.185Z,7.95
2023-02-21T08:01:22.166Z,7.88
2023-02-21T08:05:26.015Z,7.86
2023-02-21T08:09:29.610Z,7.86
2023-02-21T08:13:33.651Z,7.86
2023-02-21T08:17:29.791Z,7.87
2023-02-21T08:21:36.380Z,7.88
2023-02-21T08:25:23.422Z,7.91
2023-02-21T08:29:25.761Z,7.98
2023-02-21T08:33:13.809Z,8.08
2023-02-21T08:36:57.374Z,8.14
2023-02-21T08:40:54.638Z,8.14
2023-02-21T08:44:59.332Z,8.14
2023-02-21T08:49:02.973Z,8.13
2023-02-21T08:53:06.059Z,8.16
2023-02-21T08:57:15.612Z,8.25
2023-02-21T09:01:19.271Z,8.32
2023-02-21T09:05:22.947Z,8.38
2023-02-21T09:09:35.261Z,8.42
2023-02-21T09:13:31.853Z,8.47
2023-02-21T09:17:28.150Z,8.55
2023-02-21T09:21:31.774Z,8.64
2023-02-21T09:25:18.205Z,8.71
2023-02-21T09:29:20.644Z,8.75
2023-02-21T09:37:54.953Z,8.84
2023-02-21T09:42:05.545Z,8.82
2023-02-21T09:45:55.536Z,8.79
2023-02-21T09:50:03.043Z,8.80
2023-02-21T09:54:06.679Z,8.86
2023-02-21T09:58:13.180Z,8.87
2023-02-21T10:02:21.284Z,8.86
2023-02-21T10:06:22.488Z,8.88
2023-02-21T10:10:44.518Z,8.89
2023-02-21T10:14:53.897Z,8.98
2023-02-21T10:18:45.490Z,9.12
2023-02-21T10:22:47.759Z,9.25
2023-02-21T10:26:42.188Z,9.24
2023-02-21T10:30:45.950Z,9.18
2023-02-21T10:34:42.348Z,9.17
2023-02-21T10:38:46.089Z,9.19
2023-02-21T10:42:50.418Z,9.21
2023-02-21T10:47:06.019Z,9.22
2023-02-21T10:51:14.289Z,9.22
2023-02-21T10:55:32.404Z,9.23
2023-02-21T10:59:20.388Z,9.18
2023-02-21T11:03:31.998Z,9.20
2023-02-21T11:07:11.741Z,9.21
2023-02-21T11:11:27.723Z,9.24
2023-02-21T11:15:31.825Z,9.20
2023-02-21T11:19:44.420Z,9.12
2023-02-21T11:23:41.038Z,9.09
2023-02-21T11:27:55.502Z,9.01
2023-02-21T11:32:08.924Z,8.98
2023-02-21T11:36:32.210Z,8.97
2023-02-21T11:40:35.849Z,8.90
2023-02-21T11:44:26.836Z,8.89
2023-02-21T11:48:27.592Z,8.92
2023-02-21T11:52:34.128Z,8.95
2023-02-21T11:56:43.675Z,8.93
2023-02-21T12:00:53.770Z,8.95
2023-02-21T12:04:57.993Z,9.02
2023-02-21T12:09:17.032Z,9.15
2023-02-21T12:13:21.568Z,9.16
2023-02-21T12:17:44.110Z,9.21
2023-02-21T12:21:50.954Z,9.29
2023-02-21T12:25:57.374Z,9.33
2023-02-21T12:30:00.949Z,9.45
2023-02-21T12:33:57.384Z,9.62
2023-02-21T12:38:12.007Z,9.63
2023-02-21T12:42:14.458Z,9.55
2023-02-21T12:46:20.082Z,9.42
2023-02-21T12:50:22.494Z,9.25
2023-02-21T12:54:28.690Z,9.29
2023-02-21T12:58:45.018Z,9.47
2023-02-21T13:03:07.275Z,9.62
2023-02-21T13:06:59.405Z,9.67
2023-02-21T13:10:57.194Z,9.71
2023-02-21T13:15:09.645Z,9.66
2023-02-21T13:19:24.996Z,9.72
2023-02-21T13:23:24.782Z,9.68
2023-02-21T13:27:39.615Z,9.69
2023-02-21T13:31:50.534Z,9.94
2023-02-21T13:35:57.226Z,10.10
2023-02-21T13:39:58.389Z,10.17
2023-02-21T13:43:41.817Z,10.26
2023-02-21T13:47:36.633Z,10.31
2023-02-21T13:51:44.701Z,10.23
2023-02-21T13:55:51.144Z,10.20
2023-02-21T14:00:07.903Z,10.26
2023-02-21T14:08:57.057Z,10.34
2023-02-21T14:13:01.096Z,10.30
2023-02-21T14:17:13.915Z,10.25
2023-02-21T14:21:03.625Z,10.09
2023-02-21T14:25:07.664Z,10.02
2023-02-21T14:29:09.585Z,10.02
2023-02-21T14:33:14.726Z,9.94
2023-02-21T14:37:18.829Z,9.87
2023-02-21T14:41:20.553Z,9.81
2023-02-21T14:45:24.219Z,9.83
2023-02-21T14:49:29.366Z,9.93
2023-02-21T14:53:30.934Z,10.04
2023-02-21T14:57:40.865Z,10.04
2023-02-21T15:01:43.247Z,10.08
2023-02-21T15:05:53.593Z,10.08
2023-02-21T15:09:47.976Z,9.93
2023-02-21T15:14:06.621Z,9.72
2023-02-21T15:18:13.079Z,9.53
2023-02-21T15:22:24.469Z,9.36
2023-02-21T15:26:34.645Z,9.20
2023-02-21T15:30:47.308Z,9.13
2023-02-21T15:34:56.507Z,9.14
2023-02-21T15:38:42.843Z,9.13
2023-02-21T15:42:39.101Z,9.08
2023-02-21T15:46:38.901Z,8.97
2023-02-21T15:50:44.004Z,8.90
2023-02-21T15:54:42.520Z,8.80
2023-02-21T15:58:46.151Z,8.73
2023-02-21T16:02:32.260Z,8.70
2023-02-21T16:06:36.131Z,8.67
2023-02-21T16:10:27.866Z,8.58
2023-02-21T16:14:32.450Z,8.46
2023-02-21T16:18:28.760Z,8.39
2023-02-21T16:22:38.778Z,8.33
2023-02-21T16:26:58.227Z,8.25
2023-02-21T16:31:03.402Z,8.25
2023-02-21T16:34:36.986Z,8.27
2023-02-21T16:38:41.748Z,8.26
2023-02-21T16:42:30.700Z,8.23
2023-02-21T16:46:10.400Z,8.18
2023-02-21T16:50:12.807Z,8.15
2023-02-21T16:54:39.129Z,8.18
2023-02-21T16:58:44.013Z,8.08
2023-02-21T17:02:32.887Z,8.06
2023-02-21T17:06:15.236Z,8.04
2023-02-21T17:10:18.860Z,7.98
2023-02-21T17:14:06.392Z,7.92
2023-02-21T17:17:54.097Z,7.86
2023-02-21T17:21:52.136Z,7.83
2023-02-21T17:25:57.068Z,7.79
2023-02-21T17:29:39.581Z,7.77
2023-02-21T17:33:43.314Z,7.78
2023-02-21T17:37:32.922Z,7.81
2023-02-21T17:41:28.164Z,7.82
2023-02-21T17:45:09.045Z,7.80
2023-02-21T17:49:16.344Z,7.77
2023-02-21T17:53:19.965Z,7.76
2023-02-21T17:57:16.573Z,7.78
2023-02-21T18:05:48.332Z,7.74
2023-02-21T18:09:36.132Z,7.72
2023-02-21T18:13:32.566Z,7.65
2023-02-21T18:17:41.916Z,7.56
2023-02-21T18:21:45.616Z,7.47
2023-02-21T18:25:47.747Z,7.42
2023-02-21T18:29:52.607Z,7.42
2023-02-21T18:33:34.422Z,7.39
2023-02-21T18:37:39.533Z,7.36
2023-02-21T18:41:29.001Z,7.34
2023-02-21T18:45:25.309Z,7.31
2023-02-21T18:49:28.114Z,7.33
2023-02-21T18:53:31.731Z,7.33
2023-02-21T18:57:28.622Z,7.36
2023-02-21T19:01:35.518Z,7.35
2023-02-21T19:05:40.577Z,7.32
2023-02-21T19:09:21.455Z,7.19
2023-02-21T19:13:04.506Z,7.11
2023-02-21T19:17:08.412Z,7.03
2023-02-21T19:20:57.710Z,6.99
2023-02-21T19:25:01.492Z,6.91
2023-02-21T19:29:04.094Z,6.84
2023-02-21T19:33:07.755Z,6.78
2023-02-21T19:37:11.918Z,6.76
2023-02-21T19:41:15.491Z,6.75
2023-02-21T19:45:18.971Z,6.74
2023-02-21T19:49:43.505Z,6.72
2023-02-21T19:53:52.838Z,6.68
2023-02-21T21:52:19.229Z,7.28
2023-02-21T21:56:15.280Z,6.78
2023-02-21T22:00:10.435Z,6.46
2023-02-21T22:04:14.050Z,6.28
2023-02-21T22:08:09.571Z,6.15
2023-02-21T22:12:13.171Z,6.08
2023-02-21T22:16:10.307Z,6.02
2023-02-21T22:20:13.928Z,5.93
2023-02-21T22:24:05.032Z,5.84
2023-02-21T22:39:01.807Z,5.79
2023-02-21T22:42:53.576Z,5.74
2023-02-21T22:46:57.334Z,5.71
2023-02-21T22:50:52.426Z,5.70
2023-02-21T22:54:26.493Z,5.71
2023-02-21T22:58:30.009Z,5.73
2023-02-21T23:02:32.633Z,5.74
2023-02-21T23:06:28.861Z,5.74
2023-02-21T23:10:31.459Z,5.72
2023-02-21T23:14:35.114Z,5.75
2023-02-21T23:18:32.088Z,5.81
2023-02-21T23:22:47.904Z,5.84
2023-02-21T23:26:23.024Z,5.86
2023-02-21T23:30:22.827Z,5.87
2023-02-21T23:34:12.193Z,5.87
2023-02-21T23:38:15.764Z,5.89
2023-02-21T23:42:04.471Z,5.93
2023-02-21T23:46:00.519Z,5.94
2023-02-21T23:50:16.109Z,5.94
2023-02-21T23:54:19.710Z,5.95
2023-02-21T23:58:25.995Z,5.96
